AAL134 KLAX-EGLL
Flight info
| Callsign | AAL134 |
|---|---|
| Flight time | N/A |
| Altitude | 33000 |
| Route | OSHNN1 BEALE DCT BAWER DCT LARVE/N0479F350 DCT EKR DCT RAP DCT DPR DCT GABOV DCT PIGLA DCT PELSI/M082F370 DCT RADUN DCT 61N050W 61N040W 60N030W 5830N02000W DCT SUNOT/N0463F370 DCT KESIX DCT LUTOV DCT NIPIT DCT BOFUM Q37 MALUD Q38 NUGRA |
| Aircraft | B772/H-SDE2E3FGHIJ5LORVWXY/LB1D1 |
Departure
| Time | N/A |
|---|---|
| Airport | Los Angeles International Airport (KLAX) |
Arrival
| Time | 2026-05-05 01:26 |
|---|---|
| Airport | London Heathrow Airport (EGLL) |
| Time | Latitude | Longitude | Altitude | Speed | Heading |
|---|---|---|---|---|---|
| 2026-05-05 00:34 | 54.36328 | -8.10333 | 39116 ft | 486 kts | 117° |
| 2026-05-05 00:35 | 54.33235 | -8.00026 | 39120 ft | 486 kts | 117° |
| 2026-05-05 00:35 | 54.30142 | -7.89804 | 39114 ft | 486 kts | 117° |
| 2026-05-05 00:36 | 54.27021 | -7.79540 | 39112 ft | 486 kts | 117° |
| 2026-05-05 00:36 | 54.23893 | -7.69292 | 39111 ft | 486 kts | 117° |
| 2026-05-05 00:37 | 54.20761 | -7.59072 | 39112 ft | 485 kts | 117° |
| 2026-05-05 00:37 | 54.17626 | -7.48883 | 39107 ft | 484 kts | 117° |
| 2026-05-05 00:38 | 54.14484 | -7.38718 | 39108 ft | 484 kts | 117° |
| 2026-05-05 00:38 | 54.11340 | -7.28589 | 39108 ft | 483 kts | 117° |
| 2026-05-05 00:39 | 54.08193 | -7.18490 | 39108 ft | 483 kts | 117° |
| 2026-05-05 00:39 | 54.05038 | -7.08410 | 39106 ft | 482 kts | 118° |
| 2026-05-05 00:40 | 54.01873 | -6.98342 | 39105 ft | 482 kts | 118° |
| 2026-05-05 00:40 | 53.98711 | -6.88321 | 39103 ft | 481 kts | 118° |
| 2026-05-05 00:41 | 53.95542 | -6.78322 | 39105 ft | 480 kts | 118° |
| 2026-05-05 00:41 | 53.92366 | -6.68344 | 39100 ft | 480 kts | 118° |
| 2026-05-05 00:42 | 53.89186 | -6.58391 | 39098 ft | 480 kts | 118° |
| 2026-05-05 00:42 | 53.86000 | -6.48462 | 39099 ft | 480 kts | 118° |
| 2026-05-05 00:43 | 53.82826 | -6.38611 | 39098 ft | 480 kts | 118° |
| 2026-05-05 00:43 | 53.79625 | -6.28715 | 39095 ft | 480 kts | 118° |
| 2026-05-05 00:44 | 53.76416 | -6.18834 | 39094 ft | 479 kts | 118° |
| 2026-05-05 00:44 | 53.73200 | -6.08972 | 39092 ft | 479 kts | 118° |
| 2026-05-05 00:45 | 53.69983 | -5.99128 | 39088 ft | 478 kts | 117° |
| 2026-05-05 00:45 | 53.67530 | -5.88744 | 39086 ft | 477 kts | 104° |
| 2026-05-05 00:46 | 53.65824 | -5.77938 | 39087 ft | 477 kts | 104° |
| 2026-05-05 00:46 | 53.64093 | -5.67145 | 39091 ft | 477 kts | 104° |
| 2026-05-05 00:47 | 53.62322 | -5.56363 | 39090 ft | 478 kts | 105° |
| 2026-05-05 00:47 | 53.60528 | -5.45595 | 39089 ft | 477 kts | 105° |
| 2026-05-05 00:48 | 53.58726 | -5.34848 | 39088 ft | 477 kts | 105° |
| 2026-05-05 00:48 | 53.56929 | -5.24200 | 39089 ft | 476 kts | 105° |
| 2026-05-05 00:49 | 53.55116 | -5.13508 | 39086 ft | 475 kts | 105° |
| 2026-05-05 00:49 | 53.53295 | -5.02837 | 39083 ft | 475 kts | 105° |
| 2026-05-05 00:50 | 53.51445 | -4.92194 | 39087 ft | 474 kts | 109° |
| 2026-05-05 00:50 | 53.48412 | -4.82387 | 39093 ft | 475 kts | 125° |
| 2026-05-05 00:51 | 53.44393 | -4.73581 | 39086 ft | 476 kts | 128° |
| 2026-05-05 00:51 | 53.40225 | -4.64954 | 39078 ft | 477 kts | 129° |
| 2026-05-05 00:52 | 53.36029 | -4.56331 | 39079 ft | 477 kts | 129° |
| 2026-05-05 00:52 | 53.31840 | -4.47735 | 39075 ft | 477 kts | 129° |
| 2026-05-05 00:53 | 53.27651 | -4.39155 | 39078 ft | 476 kts | 129° |
| 2026-05-05 00:53 | 53.23460 | -4.30589 | 39075 ft | 476 kts | 129° |
| 2026-05-05 00:54 | 53.19269 | -4.22045 | 39074 ft | 476 kts | 129° |
| 2026-05-05 00:54 | 53.15075 | -4.13520 | 39076 ft | 476 kts | 129° |
| 2026-05-05 00:55 | 53.10876 | -4.05010 | 39086 ft | 476 kts | 129° |
| 2026-05-05 00:55 | 53.06664 | -3.96462 | 39082 ft | 478 kts | 129° |
| 2026-05-05 00:56 | 53.02449 | -3.87912 | 39081 ft | 479 kts | 129° |
| 2026-05-05 00:56 | 52.98223 | -3.79349 | 39088 ft | 479 kts | 129° |
| 2026-05-05 00:57 | 52.93564 | -3.71659 | 39048 ft | 471 kts | 139° |
| 2026-05-05 00:57 | 52.88812 | -3.64473 | 38733 ft | 456 kts | 135° |
| 2026-05-05 00:57 | 52.86599 | -3.60722 | 38323 ft | 454 kts | 133° |
| 2026-05-05 00:58 | 52.84469 | -3.56876 | 37886 ft | 452 kts | 131° |
| 2026-05-05 00:58 | 52.82398 | -3.52993 | 37544 ft | 449 kts | 130° |
| 2026-05-05 00:58 | 52.80368 | -3.49120 | 37266 ft | 444 kts | 130° |
| 2026-05-05 00:58 | 52.78360 | -3.45269 | 36983 ft | 440 kts | 130° |
| 2026-05-05 00:59 | 52.76370 | -3.41464 | 36658 ft | 436 kts | 130° |
| 2026-05-05 00:59 | 52.74384 | -3.37682 | 36339 ft | 433 kts | 130° |
| 2026-05-05 00:59 | 52.72414 | -3.33946 | 36022 ft | 431 kts | 130° |
| 2026-05-05 00:59 | 52.70457 | -3.30244 | 35762 ft | 426 kts | 128° |
| 2026-05-05 01:00 | 52.68671 | -3.26386 | 35515 ft | 420 kts | 121° |
| 2026-05-05 01:00 | 52.67218 | -3.22262 | 35239 ft | 415 kts | 115° |
| 2026-05-05 01:00 | 52.65886 | -3.18061 | 34963 ft | 411 kts | 115° |
| 2026-05-05 01:00 | 52.64560 | -3.13908 | 34696 ft | 408 kts | 115° |
| 2026-05-05 01:01 | 52.63237 | -3.09795 | 34437 ft | 405 kts | 115° |
| 2026-05-05 01:01 | 52.61920 | -3.05723 | 34174 ft | 402 kts | 115° |
| 2026-05-05 01:01 | 52.60605 | -3.01677 | 33870 ft | 399 kts | 115° |
| 2026-05-05 01:01 | 52.59301 | -2.97678 | 33549 ft | 396 kts | 115° |
| 2026-05-05 01:02 | 52.57998 | -2.93692 | 33211 ft | 394 kts | 116° |
| 2026-05-05 01:02 | 52.56702 | -2.89734 | 32865 ft | 393 kts | 116° |
| 2026-05-05 01:02 | 52.55407 | -2.85786 | 32528 ft | 391 kts | 116° |
| 2026-05-05 01:02 | 52.54117 | -2.81865 | 32214 ft | 389 kts | 116° |
| 2026-05-05 01:03 | 52.52831 | -2.77959 | 31884 ft | 388 kts | 116° |
| 2026-05-05 01:03 | 52.51552 | -2.74080 | 31574 ft | 386 kts | 116° |
| 2026-05-05 01:03 | 52.50274 | -2.70212 | 31253 ft | 384 kts | 116° |
| 2026-05-05 01:03 | 52.49000 | -2.66360 | 30956 ft | 383 kts | 117° |
| 2026-05-05 01:04 | 52.47728 | -2.62517 | 30542 ft | 385 kts | 118° |
| 2026-05-05 01:04 | 52.45170 | -2.54817 | 29914 ft | 382 kts | 118° |
| 2026-05-05 01:04 | 52.43923 | -2.51071 | 29626 ft | 377 kts | 118° |
| 2026-05-05 01:05 | 52.42659 | -2.47281 | 29251 ft | 372 kts | 119° |
| 2026-05-05 01:05 | 52.41441 | -2.43635 | 28902 ft | 367 kts | 120° |
| 2026-05-05 01:05 | 52.40224 | -2.39994 | 28533 ft | 363 kts | 120° |
| 2026-05-05 01:05 | 52.39015 | -2.36383 | 28162 ft | 360 kts | 120° |
| 2026-05-05 01:06 | 52.37818 | -2.32811 | 27803 ft | 356 kts | 120° |
| 2026-05-05 01:06 | 52.36633 | -2.29282 | 27457 ft | 353 kts | 120° |
| 2026-05-05 01:06 | 52.35454 | -2.25778 | 27103 ft | 349 kts | 120° |
| 2026-05-05 01:06 | 52.34288 | -2.22315 | 26752 ft | 346 kts | 120° |
| 2026-05-05 01:07 | 52.33128 | -2.18877 | 26415 ft | 344 kts | 121° |
| 2026-05-05 01:07 | 52.31980 | -2.15476 | 26078 ft | 341 kts | 121° |
| 2026-05-05 01:07 | 52.30836 | -2.12095 | 25742 ft | 340 kts | 121° |
| 2026-05-05 01:07 | 52.29685 | -2.08698 | 25411 ft | 345 kts | 121° |
| 2026-05-05 01:08 | 52.28506 | -2.05227 | 25088 ft | 354 kts | 121° |
| 2026-05-05 01:08 | 52.27297 | -2.01671 | 24731 ft | 358 kts | 121° |
| 2026-05-05 01:08 | 52.26094 | -1.98135 | 24368 ft | 356 kts | 121° |
| 2026-05-05 01:08 | 52.24899 | -1.94625 | 23989 ft | 353 kts | 121° |
| 2026-05-05 01:09 | 52.23709 | -1.91131 | 23644 ft | 351 kts | 121° |
| 2026-05-05 01:09 | 52.22525 | -1.87663 | 23245 ft | 348 kts | 121° |
| 2026-05-05 01:09 | 52.21352 | -1.84231 | 22866 ft | 345 kts | 121° |
| 2026-05-05 01:09 | 52.20190 | -1.80837 | 22502 ft | 342 kts | 121° |
| 2026-05-05 01:10 | 52.19037 | -1.77475 | 22161 ft | 338 kts | 121° |
| 2026-05-05 01:10 | 52.17872 | -1.74181 | 21779 ft | 336 kts | 126° |
| 2026-05-05 01:10 | 52.16418 | -1.71190 | 21373 ft | 335 kts | 135° |
| 2026-05-05 01:10 | 52.14734 | -1.68575 | 20985 ft | 334 kts | 141° |
| 2026-05-05 01:11 | 52.12973 | -1.66112 | 20629 ft | 334 kts | 141° |
| 2026-05-05 01:11 | 52.11207 | -1.63666 | 20252 ft | 330 kts | 141° |
| 2026-05-05 01:11 | 52.09500 | -1.61304 | 19657 ft | 325 kts | 141° |
| 2026-05-05 01:11 | 52.07741 | -1.58870 | 19005 ft | 328 kts | 141° |
| 2026-05-05 01:12 | 52.06014 | -1.56478 | 18454 ft | 327 kts | 141° |
| 2026-05-05 01:12 | 52.04280 | -1.54074 | 18004 ft | 327 kts | 141° |
| 2026-05-05 01:12 | 52.02562 | -1.51693 | 17706 ft | 322 kts | 140° |
| 2026-05-05 01:12 | 52.00872 | -1.49349 | 17382 ft | 318 kts | 140° |
| 2026-05-05 01:13 | 51.99191 | -1.47018 | 16964 ft | 317 kts | 140° |
| 2026-05-05 01:13 | 51.97538 | -1.44726 | 16525 ft | 317 kts | 140° |
| 2026-05-05 01:13 | 51.95843 | -1.42379 | 16116 ft | 316 kts | 140° |
| 2026-05-05 01:13 | 51.94179 | -1.40078 | 15762 ft | 314 kts | 140° |
| 2026-05-05 01:14 | 51.92525 | -1.37792 | 15407 ft | 311 kts | 140° |
| 2026-05-05 01:14 | 51.90883 | -1.35525 | 15043 ft | 310 kts | 140° |
| 2026-05-05 01:14 | 51.89243 | -1.33263 | 14649 ft | 309 kts | 140° |
| 2026-05-05 01:14 | 51.87602 | -1.31002 | 14284 ft | 308 kts | 140° |
| 2026-05-05 01:15 | 51.85971 | -1.28757 | 13925 ft | 307 kts | 140° |
| 2026-05-05 01:15 | 51.84349 | -1.26527 | 13539 ft | 306 kts | 140° |
| 2026-05-05 01:15 | 51.82731 | -1.24303 | 13143 ft | 305 kts | 140° |
| 2026-05-05 01:15 | 51.81119 | -1.22090 | 12774 ft | 303 kts | 140° |
| 2026-05-05 01:16 | 51.79521 | -1.19899 | 12425 ft | 300 kts | 140° |
| 2026-05-05 01:16 | 51.77943 | -1.17738 | 12127 ft | 296 kts | 140° |
| 2026-05-05 01:16 | 51.76377 | -1.15594 | 11741 ft | 295 kts | 140° |
| 2026-05-05 01:16 | 51.75343 | -1.14179 | 11470 ft | 295 kts | 140° |
| 2026-05-05 01:17 | 51.73772 | -1.12033 | 11076 ft | 295 kts | 140° |
| 2026-05-05 01:17 | 51.72204 | -1.09893 | 10712 ft | 294 kts | 140° |
| 2026-05-05 01:17 | 51.70649 | -1.07772 | 10375 ft | 293 kts | 140° |
| 2026-05-05 01:17 | 51.69096 | -1.05656 | 10032 ft | 292 kts | 140° |
| 2026-05-05 01:18 | 51.67557 | -1.03559 | 9588 ft | 285 kts | 141° |
| 2026-05-05 01:18 | 51.66046 | -1.01504 | 8824 ft | 285 kts | 141° |
| 2026-05-05 01:18 | 51.64532 | -0.99447 | 8076 ft | 284 kts | 141° |
| 2026-05-05 01:18 | 51.63032 | -0.97410 | 7294 ft | 282 kts | 141° |
| 2026-05-05 01:19 | 51.61512 | -0.95350 | 6776 ft | 288 kts | 141° |
| 2026-05-05 01:19 | 51.59990 | -0.93286 | 6589 ft | 281 kts | 141° |
| 2026-05-05 01:19 | 51.58522 | -0.91297 | 6496 ft | 272 kts | 141° |
| 2026-05-05 01:19 | 51.57096 | -0.89366 | 6357 ft | 265 kts | 141° |
| 2026-05-05 01:20 | 51.55702 | -0.87482 | 6150 ft | 260 kts | 141° |
| 2026-05-05 01:20 | 51.54320 | -0.85617 | 5864 ft | 259 kts | 140° |
| 2026-05-05 01:20 | 51.52948 | -0.83766 | 5624 ft | 256 kts | 140° |
| 2026-05-05 01:20 | 51.51608 | -0.81957 | 5484 ft | 247 kts | 140° |
| 2026-05-05 01:21 | 51.50311 | -0.80209 | 5321 ft | 240 kts | 140° |
| 2026-05-05 01:21 | 51.49045 | -0.78505 | 5082 ft | 235 kts | 140° |
| 2026-05-05 01:21 | 51.47816 | -0.76852 | 4982 ft | 224 kts | 140° |
| 2026-05-05 01:21 | 51.46747 | -0.75173 | 4853 ft | 206 kts | 120° |
| 2026-05-05 01:22 | 51.46382 | -0.73062 | 4582 ft | 191 kts | 89° |
| 2026-05-05 01:22 | 51.46395 | -0.70992 | 4186 ft | 182 kts | 86° |
| 2026-05-05 01:22 | 51.46399 | -0.68993 | 3769 ft | 176 kts | 87° |
| 2026-05-05 01:22 | 51.46387 | -0.67054 | 3338 ft | 172 kts | 87° |
| 2026-05-05 01:23 | 51.46372 | -0.65184 | 2908 ft | 169 kts | 88° |
| 2026-05-05 01:23 | 51.46352 | -0.63313 | 2485 ft | 164 kts | 88° |
| 2026-05-05 01:23 | 51.46355 | -0.61511 | 2117 ft | 154 kts | 86° |
| 2026-05-05 01:23 | 51.46381 | -0.59902 | 1760 ft | 135 kts | 86° |
| 2026-05-05 01:24 | 51.46397 | -0.58438 | 1432 ft | 135 kts | 88° |
| 2026-05-05 01:24 | 51.46412 | -0.56918 | 1225 ft | 137 kts | 87° |
| 2026-05-05 01:24 | 51.46441 | -0.55362 | 1020 ft | 137 kts | 85° |
| 2026-05-05 01:24 | 51.46451 | -0.53875 | 858 ft | 133 kts | 89° |
| 2026-05-05 01:25 | 51.46453 | -0.52384 | 666 ft | 131 kts | 87° |
| 2026-05-05 01:25 | 51.46468 | -0.50927 | 459 ft | 131 kts | 88° |
| 2026-05-05 01:25 | 51.46473 | -0.49480 | 283 ft | 134 kts | 88° |
| 2026-05-05 01:25 | 51.46482 | -0.47999 | 114 ft | 129 kts | 88° |
| 2026-05-05 01:26 | 51.46482 | -0.46726 | 94 ft | 95 kts | 88° |
| 2026-05-05 01:26 | 51.46490 | -0.45934 | 87 ft | 41 kts | 83° |
| 2026-05-05 01:26 | 51.46555 | -0.45701 | 89 ft | 13 kts | 48° |
| 2026-05-05 01:26 | 51.46609 | -0.45655 | 89 ft | 8 kts | 16° |
| 2026-05-05 01:27 | 51.46644 | -0.45664 | 87 ft | 5 kts | 324° |
| 2026-05-05 01:27 | 51.46660 | -0.45709 | 89 ft | 5 kts | 280° |
| 2026-05-05 01:27 | 51.46662 | -0.45766 | 87 ft | 9 kts | 273° |
| 2026-05-05 01:27 | 51.46662 | -0.45924 | 86 ft | 15 kts | 270° |
| 2026-05-05 01:28 | 51.46662 | -0.46097 | 88 ft | 15 kts | 267° |
| 2026-05-05 01:28 | 51.46660 | -0.46242 | 93 ft | 11 kts | 274° |
| 2026-05-05 01:28 | 51.46667 | -0.46355 | 92 ft | 9 kts | 287° |
| 2026-05-05 01:28 | 51.46716 | -0.46417 | 94 ft | 10 kts | 345° |
| 2026-05-05 01:29 | 51.46781 | -0.46440 | 94 ft | 9 kts | 340° |
| 2026-05-05 01:29 | 51.46837 | -0.46493 | 92 ft | 9 kts | 326° |
| 2026-05-05 01:29 | 51.46883 | -0.46543 | 93 ft | 8 kts | 328° |
| 2026-05-05 01:29 | 51.46929 | -0.46589 | 93 ft | 8 kts | 327° |
| 2026-05-05 01:30 | 51.46974 | -0.46637 | 93 ft | 8 kts | 323° |
| 2026-05-05 01:30 | 51.47017 | -0.46685 | 93 ft | 8 kts | 326° |
| 2026-05-05 01:30 | 51.47065 | -0.46717 | 93 ft | 8 kts | 350° |
| 2026-05-05 01:30 | 51.47117 | -0.46725 | 89 ft | 8 kts | 359° |
| 2026-05-05 01:31 | 51.47170 | -0.46725 | 89 ft | 8 kts | 1° |
| 2026-05-05 01:31 | 51.47221 | -0.46709 | 94 ft | 8 kts | 33° |
| 2026-05-05 01:31 | 51.47239 | -0.46642 | 94 ft | 6 kts | 81° |
| 2026-05-05 01:31 | 51.47241 | -0.46577 | 90 ft | 5 kts | 89° |
| 2026-05-05 01:32 | 51.47241 | -0.46544 | 89 ft | 2 kts | 90° |
| 2026-05-05 01:32 | 51.47241 | -0.46515 | 89 ft | 4 kts | 91° |
| 2026-05-05 01:32 | 51.47235 | -0.46453 | 93 ft | 5 kts | 109° |
| 2026-05-05 01:32 | 51.47232 | -0.46398 | 92 ft | 4 kts | 74° |
| 2026-05-05 01:33 | 51.47242 | -0.46364 | 93 ft | 3 kts | 61° |
| 2026-05-05 01:33 | 51.47252 | -0.46338 | 92 ft | 2 kts | 56° |
| 2026-05-05 01:33 | 51.47258 | -0.46325 | 92 ft | 1 kts | 56° |
| 2026-05-05 01:33 | 51.47263 | -0.46313 | 93 ft | 1 kts | 56° |
| 2026-05-05 01:34 | 51.47265 | -0.46307 | 93 ft | 0 kts | 56° |